Weather at Notodden sjøflyplass - Heddalsvatnet

Public forecast

Using degrees Celsius for public forecast. Weather courtesy of forecast.io.

Closest aviation weather report (METAR) to Notodden sjøflyplass - Heddalsvatnet

Closest report is Notodden Airport, 0.5 nm (0.9 km) NW.

2024/05/21 07:50 (retrieved 28 minutes ago)

ENNO 210750Z VRB02KT CAVOK 18/08 Q1022

Closest aviation forecast (TAF) to Notodden sjøflyplass - Heddalsvatnet

Closest forecast is Sandefjord Airport, Torp, 38.8 nm (71.8 km) SE.

2024/05/21 06:39 (retrieved 2 hours ago)

TAF ENTO 210500Z 2106/2206 06007KT CAVOK